Time;durP1;ratioP1;P1;durP2;ratioP2;P2;SDS_P1;SDS_P2;PMS_P1;PMS_P2;Temp;Humidity;BMP_temperature;BMP_pressure;BME280_temperature;BME280_humidity;BME280_pressure;Samples;Min_cycle;Max_cycle;Signal;HPM_P1;HPM_P2
2022/01/12 00:00:29;;;;;;;6.57;3.23;;;;;;;-0.43;57.98;97583.09;5066689;28;20203;-86
2022/01/12 00:02:57;;;;;;;5.73;4.10;;;;;;;-0.51;58.30;97554.22;5050085;28;20196;-88
2022/01/12 00:05:24;;;;;;;6.27;4.10;;;;;;;-0.22;58.82;97598.47;5066568;28;20281;-86
2022/01/12 00:07:52;;;;;;;6.40;4.43;;;;;;;-0.50;59.60;97543.22;5067823;28;20196;-85
2022/01/12 00:10:19;;;;;;;10.70;4.37;;;;;;;-0.49;59.96;97541.50;5067815;28;20217;-85
2022/01/12 00:12:46;;;;;;;6.60;4.10;;;;;;;-0.13;59.86;97613.81;5068752;28;20181;-87
2022/01/12 00:15:15;;;;;;;8.77;4.77;;;;;;;-0.32;60.57;97570.44;5067801;28;20223;-88
2022/01/12 00:17:42;;;;;;;7.53;4.50;;;;;;;-0.28;61.69;97603.53;5050542;28;20254;-88
2022/01/12 00:20:10;;;;;;;7.87;5.10;;;;;;;-0.26;60.96;97595.91;5068659;28;20224;-87
2022/01/12 00:22:39;;;;;;;6.73;4.53;;;;;;;-0.65;61.21;97525.31;5049859;28;20193;-85
2022/01/12 00:33:20;;;;;;;9.47;5.47;;;;;;;-1.50;63.70;97469.69;5066016;28;20751;-85
2022/01/12 00:35:53;;;;;;;9.07;5.30;;;;;;;-0.73;64.97;97607.47;5066160;28;20185;-86
2022/01/12 00:38:23;;;;;;;8.93;5.37;;;;;;;-0.71;65.14;97627.00;5065814;28;20196;-86
2022/01/12 00:40:53;;;;;;;8.13;5.13;;;;;;;-1.22;64.99;97524.94;5049810;28;20188;-87
2022/01/12 00:43:23;;;;;;;9.17;5.03;;;;;;;-0.57;63.62;97625.41;5050308;28;20189;-87
2022/01/12 00:45:50;;;;;;;9.97;5.47;;;;;;;-0.53;64.80;97616.94;5066895;28;20305;-90
2022/01/12 00:48:18;;;;;;;10.73;6.07;;;;;;;-0.42;63.23;97627.19;5067716;28;20201;-87
2022/01/12 00:50:47;;;;;;;11.23;5.60;;;;;;;-0.35;63.51;97632.31;5054933;28;20726;-94
2022/01/12 00:53:16;;;;;;;8.47;4.87;;;;;;;-0.23;62.74;97627.28;5072187;28;20181;-89
2022/01/12 00:55:43;;;;;;;9.50;4.80;;;;;;;-0.40;61.59;97626.38;5053801;28;20197;-87
2022/01/12 00:58:11;;;;;;;7.23;5.00;;;;;;;-0.54;63.09;97633.06;5070440;28;20188;-91
2022/01/12 01:00:38;;;;;;;8.13;4.90;;;;;;;-0.51;62.87;97617.81;5071159;28;20262;-89
2022/01/12 01:03:07;;;;;;;9.07;5.37;;;;;;;-0.67;63.49;97640.56;5070307;28;20185;-85
2022/01/12 01:05:36;;;;;;;9.10;5.70;;;;;;;-1.03;64.10;97587.78;5070286;28;20197;-87
2022/01/12 01:08:04;;;;;;;10.60;5.80;;;;;;;-1.05;65.20;97635.19;5069409;28;20212;-87
2022/01/12 01:13:03;;;;;;;10.13;5.73;;;;;;;-1.32;65.97;97630.69;5070776;28;20182;-84
2022/01/12 01:26:41;;;;;;;10.83;5.57;;;;;;;-1.03;63.88;97628.44;5055517;28;20207;-84
2022/01/12 01:29:09;;;;;;;8.80;5.43;;;;;;;-1.23;62.87;97635.88;5074010;28;20764;-83
2022/01/12 01:31:40;;;;;;;9.10;5.80;;;;;;;-1.50;64.76;97633.03;5072669;28;20227;-83
2022/01/12 01:34:10;;;;;;;7.60;5.17;;;;;;;-1.86;65.59;97600.50;5073729;28;20190;-83
2022/01/12 01:36:45;;;;;;;7.17;4.77;;;;;;;-1.99;65.66;97585.13;5071666;28;20196;-84
2022/01/12 01:39:17;;;;;;;9.27;5.33;;;;;;;-1.59;65.87;97625.34;5053636;28;20196;-86
2022/01/12 01:41:55;;;;;;;8.07;5.03;;;;;;;-1.39;65.76;97654.34;5071212;28;20478;-84
2022/01/12 01:55:12;;;;;;;8.67;4.87;;;;;;;-1.67;66.34;97652.34;5069484;28;20202;-84
2022/01/12 01:57:41;;;;;;;10.63;5.07;;;;;;;-1.75;66.10;97633.59;5068333;28;20214;-83
2022/01/12 02:00:16;;;;;;;10.73;5.70;;;;;;;-1.52;66.43;97636.41;5066972;28;20204;-85
2022/01/12 02:02:57;;;;;;;9.77;5.43;;;;;;;-1.36;65.99;97661.16;5051859;28;20610;-84
2022/01/12 02:05:34;;;;;;;9.43;5.77;;;;;;;-1.46;65.78;97672.03;5068026;28;20195;-86
2022/01/12 02:08:02;;;;;;;10.87;5.80;;;;;;;-2.13;66.16;97595.09;5069411;28;20196;-85
2022/01/12 02:10:35;;;;;;;9.23;5.57;;;;;;;-1.82;66.38;97654.69;5068995;28;20229;-83
2022/01/12 02:13:02;;;;;;;9.70;6.00;;;;;;;-1.97;67.41;97657.03;5069158;28;20187;-84
2022/01/12 02:15:29;;;;;;;8.27;5.47;;;;;;;-2.14;66.86;97636.50;5068037;28;20695;-84
2022/01/12 02:40:37;;;;;;;10.37;6.00;;;;;;;-2.00;67.62;97702.69;5070943;28;20676;-84
2022/01/12 02:53:40;;;;;;;8.93;4.80;;;;;;;-1.95;67.17;97727.28;5069471;28;20255;-83
2022/01/12 02:56:11;;;;;;;9.77;5.27;;;;;;;-1.96;67.09;97725.56;5071642;28;20201;-81
2022/01/12 02:58:39;;;;;;;12.30;6.33;;;;;;;-2.47;67.32;97663.94;5074831;28;20191;-82
2022/01/12 03:03:43;;;;;;;12.30;5.47;;;;;;;-2.17;67.25;97699.91;5087033;28;20192;-83
2022/01/12 03:06:16;;;;;;;9.67;5.10;;;;;;;-2.08;67.10;97705.09;5070231;28;20662;-81
2022/01/12 03:08:45;;;;;;;8.10;4.87;;;;;;;-1.88;66.57;97733.28;5060150;28;20196;-83
2022/01/12 03:11:16;;;;;;;8.53;5.07;;;;;;;-2.40;67.41;97663.22;5052032;28;20650;-87
2022/01/12 03:13:47;;;;;;;8.90;5.17;;;;;;;-2.41;66.59;97648.81;5073925;28;20253;-84
2022/01/12 03:16:18;;;;;;;8.80;5.27;;;;;;;-2.26;66.77;97676.94;5065939;28;20618;-84
2022/01/12 03:18:50;;;;;;;11.37;5.33;;;;;;;-2.02;66.75;97710.25;5055388;28;20192;-82
2022/01/12 03:21:21;;;;;;;8.07;4.90;;;;;;;-1.83;65.77;97732.50;5049735;28;20232;-84
2022/01/12 03:23:50;;;;;;;9.37;4.93;;;;;;;-2.04;66.05;97706.84;5048192;28;20274;-83
2022/01/12 03:26:18;;;;;;;8.80;4.43;;;;;;;-2.55;66.76;97607.22;5049797;28;20185;-82
2022/01/12 03:28:53;;;;;;;9.40;5.57;;;;;;;-2.59;67.24;97644.34;5031179;28;20184;-83
2022/01/12 03:31:24;;;;;;;10.70;5.60;;;;;;;-2.73;67.88;97625.56;5047508;28;20211;-83
2022/01/12 03:33:59;;;;;;;7.57;4.80;;;;;;;-2.81;67.55;97618.66;5030734;28;20206;-83
2022/01/12 04:08:46;;;;;;;13.20;6.47;;;;;;;-1.92;65.67;97754.38;5030759;28;20196;-83
2022/01/12 04:11:13;;;;;;;8.70;4.10;;;;;;;-1.88;65.70;97789.97;5047998;28;20271;-83
2022/01/12 04:13:42;;;;;;;8.67;4.67;;;;;;;-2.55;65.57;97713.69;5049142;28;20193;-86
2022/01/12 04:16:13;;;;;;;9.50;5.27;;;;;;;-2.08;66.11;97793.06;5046333;28;20223;-82
2022/01/12 04:18:41;;;;;;;11.57;4.87;;;;;;;-2.18;65.69;97765.81;5047136;28;20204;-88
2022/01/12 04:21:10;;;;;;;10.47;5.20;;;;;;;-2.41;65.89;97722.34;5046597;28;20308;-86
2022/01/12 04:23:41;;;;;;;6.87;4.50;;;;;;;-2.54;65.00;97728.94;5062321;28;20213;-90
2022/01/12 04:26:12;;;;;;;6.73;4.30;;;;;;;-2.17;65.87;97790.34;5068699;28;20175;-88
2022/01/12 04:28:43;;;;;;;9.40;5.30;;;;;;;-2.52;66.81;97741.63;5066337;28;20745;-82
2022/01/12 04:31:11;;;;;;;12.67;5.17;;;;;;;-2.34;66.58;97752.06;5060055;28;20226;-84
2022/01/12 04:33:41;;;;;;;9.57;5.57;;;;;;;-1.80;66.43;97823.94;5045981;28;20201;-85
2022/01/12 04:36:12;;;;;;;10.50;5.60;;;;;;;-1.87;66.08;97811.97;5046350;28;20192;-83
2022/01/12 04:38:41;;;;;;;6.43;4.50;;;;;;;-1.75;66.00;97832.44;5062712;28;20217;-84
2022/01/12 04:41:10;;;;;;;12.97;6.27;;;;;;;-2.13;67.08;97807.34;5046711;28;20185;-88
2022/01/12 04:43:41;;;;;;;11.13;7.20;;;;;;;-2.21;67.28;97817.38;5066663;28;20615;-83
2022/01/12 04:47:05;;;;;;;9.00;5.23;;;;;;;-2.20;67.57;97846.97;5065577;28;20191;-84
2022/01/12 04:51:37;;;;;;;9.60;5.13;;;;;;;-2.26;67.68;97856.13;5065397;28;20227;-86
2022/01/12 04:54:04;;;;;;;9.90;5.30;;;;;;;-2.40;67.90;97834.78;5047842;28;20192;-81
2022/01/12 04:56:32;;;;;;;9.63;5.80;;;;;;;-2.17;67.53;97874.06;5065571;28;20188;-83
2022/01/12 04:58:59;;;;;;;8.57;5.17;;;;;;;-2.73;68.16;97785.22;5064792;28;20195;-84
2022/01/12 05:01:28;;;;;;;7.90;4.93;;;;;;;-2.63;67.71;97809.03;5048542;28;20250;-83
2022/01/12 05:06:57;;;;;;;9.87;5.93;;;;;;;-2.14;68.40;97877.50;5039064;28;20225;-84
2022/01/12 05:15:03;;;;;;;8.30;4.70;;;;;;;-2.62;67.64;97820.88;5066550;28;20284;-86
2022/01/12 05:17:34;;;;;;;11.43;5.80;;;;;;;-2.06;67.77;97875.94;5033270;28;20348;-84
2022/01/12 05:20:03;;;;;;;8.50;5.00;;;;;;;-2.27;67.07;97855.31;5064816;28;20224;-84
2022/01/12 05:22:31;;;;;;;9.83;5.47;;;;;;;-2.16;67.65;97884.22;5048949;28;20683;-85
2022/01/12 05:24:58;;;;;;;9.23;5.20;;;;;;;-2.18;69.01;97900.25;5081536;28;20188;-86
2022/01/12 05:27:29;;;;;;;10.00;5.37;;;;;;;-2.46;68.72;97876.09;5066289;28;20550;-89
2022/01/12 05:29:56;;;;;;;9.73;5.33;;;;;;;-2.71;69.43;97851.13;5043733;28;20195;-84
2022/01/12 05:32:25;;;;;;;8.27;5.17;;;;;;;-2.24;69.02;97931.44;5048048;28;20278;-84
2022/01/12 05:34:59;;;;;;;12.97;6.10;;;;;;;-2.39;68.95;97912.56;5047114;28;20691;-84
2022/01/12 05:37:30;;;;;;;12.63;4.93;;;;;;;-2.81;68.60;97829.84;5001168;28;20199;-85
2022/01/12 05:40:06;;;;;;;11.13;5.10;;;;;;;-2.34;68.97;97919.41;5048316;28;20772;-83
2022/01/12 05:42:34;;;;;;;14.03;7.23;;;;;;;-2.46;70.23;97911.59;5015652;28;20199;-83
2022/01/12 05:45:06;;;;;;;14.17;7.00;;;;;;;-2.27;69.93;97902.63;5031604;28;20640;-84
2022/01/12 05:50:04;;;;;;;10.17;5.97;;;;;;;-2.03;69.85;97952.13;5032147;28;20249;-85
2022/01/12 05:52:31;;;;;;;9.93;5.97;;;;;;;-2.90;68.43;97811.91;5048908;28;20221;-86
2022/01/12 05:55:02;;;;;;;12.03;6.03;;;;;;;-2.05;69.04;97946.16;5048435;28;20196;-85
2022/01/12 05:57:31;;;;;;;17.27;6.53;;;;;;;-2.16;68.72;97940.03;5033279;28;20196;-86
2022/01/12 05:59:59;;;;;;;12.27;7.90;;;;;;;-2.12;69.02;97941.81;5066041;28;20383;-84
2022/01/12 06:02:29;;;;;;;13.47;7.13;;;;;;;-2.41;69.17;97888.88;5031905;28;20250;-86
2022/01/12 06:04:56;;;;;;;15.90;8.33;;;;;;;-2.46;69.08;97868.50;5064924;28;20224;-85
2022/01/12 06:07:25;;;;;;;9.97;5.40;;;;;;;-2.74;67.46;97838.41;5031821;28;20195;-83
2022/01/12 06:09:53;;;;;;;9.33;5.70;;;;;;;-2.36;68.36;97912.59;5049427;28;20567;-85
2022/01/12 06:12:21;;;;;;;10.40;6.23;;;;;;;-2.67;68.79;97912.03;5049476;28;20263;-86
2022/01/12 06:14:48;;;;;;;9.00;5.50;;;;;;;-2.36;70.02;97973.47;5048815;28;20185;-84
2022/01/12 06:17:16;;;;;;;12.37;6.97;;;;;;;-2.33;69.27;97987.09;5048594;28;20184;-86
2022/01/12 06:19:43;;;;;;;10.17;5.77;;;;;;;-2.40;69.14;97974.22;5048439;28;20291;-88
2022/01/12 06:22:24;;;;;;;12.73;5.80;;;;;;;-2.42;69.66;97997.03;5032159;28;20205;-86
2022/01/12 06:24:53;;;;;;;14.37;6.60;;;;;;;-2.44;70.35;97993.63;5064343;28;20202;-85
2022/01/12 06:27:29;;;;;;;26.27;8.70;;;;;;;-2.58;69.98;97967.13;5048688;28;20187;-87
2022/01/12 06:32:42;;;;;;;14.87;7.73;;;;;;;-2.96;70.41;97907.19;5031746;28;20230;-84
2022/01/12 06:35:11;;;;;;;11.80;6.03;;;;;;;-2.79;70.60;97959.09;5016975;28;20197;-87
2022/01/12 06:37:39;;;;;;;20.37;9.13;;;;;;;-2.31;71.05;98013.34;5048364;28;20558;-89
2022/01/12 06:40:06;;;;;;;14.93;7.47;;;;;;;-2.78;71.03;97930.41;5049492;28;20189;-84
2022/01/12 06:42:34;;;;;;;11.33;6.60;;;;;;;-2.74;70.81;97976.09;5049519;28;20223;-85
2022/01/12 06:45:08;;;;;;;11.10;5.40;;;;;;;-2.86;71.82;97967.38;5063569;28;20195;-84
2022/01/12 06:47:36;;;;;;;10.57;5.80;;;;;;;-2.44;71.94;98039.25;5031579;28;20188;-87
2022/01/12 06:50:06;;;;;;;11.40;6.70;;;;;;;-2.68;71.53;98010.88;5048484;28;20597;-89
2022/01/12 06:52:34;;;;;;;16.90;7.27;;;;;;;-2.79;73.72;97992.03;5050730;28;20245;-86
2022/01/12 06:55:03;;;;;;;18.27;7.53;;;;;;;-2.46;73.80;98018.09;5048404;28;20192;-87
2022/01/12 06:57:31;;;;;;;19.83;8.07;;;;;;;-2.37;72.40;98013.19;5048449;28;20190;-87
2022/01/12 07:00:03;;;;;;;13.07;6.23;;;;;;;-2.62;71.29;97975.50;5031165;28;20194;-87
2022/01/12 07:02:30;;;;;;;11.13;5.23;;;;;;;-2.65;71.06;97994.03;5031589;28;20207;-85
2022/01/12 07:04:58;;;;;;;12.03;5.43;;;;;;;-2.51;71.42;98030.66;5047866;28;20278;-85
2022/01/12 07:07:25;;;;;;;15.07;5.97;;;;;;;-3.65;71.87;97858.47;5031205;28;20778;-84
2022/01/12 07:10:38;;;;;;;14.03;6.73;;;;;;;-2.54;72.08;98068.63;5048418;28;20182;-86
2022/01/12 07:14:03;;;;;;;14.20;6.77;;;;;;;-2.58;72.14;98066.88;5030165;28;20227;-84
2022/01/12 07:17:26;;;;;;;19.10;7.47;;;;;;;-2.34;71.03;98073.25;5046655;28;20191;-84
2022/01/12 07:20:47;;;;;;;11.57;6.30;;;;;;;-2.48;70.83;98088.19;5028979;28;20711;-83
2022/01/12 07:24:08;;;;;;;8.40;4.97;;;;;;;-2.44;71.20;98079.81;5030256;28;20204;-83
2022/01/12 07:27:28;;;;;;;11.33;6.07;;;;;;;-2.26;69.71;98102.16;5048835;28;20202;-85
2022/01/12 07:30:50;;;;;;;12.03;5.53;;;;;;;-2.55;69.65;98061.84;5047631;28;20312;-84
2022/01/12 07:34:13;;;;;;;7.93;5.07;;;;;;;-2.31;70.37;98101.22;5048238;28;20273;-84
2022/01/12 07:37:33;;;;;;;13.67;6.13;;;;;;;-2.16;70.14;98099.84;5048233;28;20608;-85
2022/01/12 07:40:56;;;;;;;12.47;5.63;;;;;;;-2.04;69.31;98107.72;5049896;28;20193;-85
2022/01/12 07:44:17;;;;;;;11.50;5.57;;;;;;;-2.59;68.46;98046.53;5060277;28;20635;-86
2022/01/12 07:47:38;;;;;;;8.60;4.40;;;;;;;-2.12;68.02;98090.66;5046009;28;20681;-86
2022/01/12 07:50:58;;;;;;;14.03;7.07;;;;;;;-1.94;67.76;98107.06;5045323;28;20203;-87
2022/01/12 07:54:20;;;;;;;11.13;4.67;;;;;;;-1.94;67.46;98114.69;5048195;28;20293;-85
2022/01/12 07:57:43;;;;;;;16.97;5.63;;;;;;;-1.63;67.34;98127.16;5045812;28;20706;-85
2022/01/12 08:01:03;;;;;;;10.37;5.70;;;;;;;-1.53;66.92;98132.41;5044960;28;20195;-86
2022/01/12 08:04:25;;;;;;;13.97;6.73;;;;;;;-1.33;66.43;98137.03;5047565;28;20699;-88
2022/01/12 08:07:47;;;;;;;12.47;6.80;;;;;;;-1.18;65.53;98136.44;5047705;28;20256;-84
2022/01/12 08:11:07;;;;;;;14.67;6.63;;;;;;;-1.39;66.10;98144.53;5047786;28;20707;-82
2022/01/12 08:14:28;;;;;;;13.90;5.90;;;;;;;-1.81;66.50;98086.19;5044627;28;20240;-86
2022/01/12 08:17:49;;;;;;;13.30;6.33;;;;;;;-1.62;66.08;98148.31;5046873;28;20184;-84
2022/01/12 08:21:09;;;;;;;15.97;6.97;;;;;;;-1.38;65.89;98147.94;5046614;28;20239;-84
2022/01/12 08:24:30;;;;;;;11.77;5.67;;;;;;;-1.51;64.45;98123.13;5047171;28;20196;-85
2022/01/12 08:27:51;;;;;;;17.50;6.57;;;;;;;-1.50;64.58;98137.53;5074786;28;20184;-86
2022/01/12 08:31:13;;;;;;;13.33;6.87;;;;;;;-1.04;64.75;98160.41;5044229;28;20246;-84
2022/01/12 08:34:34;;;;;;;8.20;5.13;;;;;;;-0.95;64.20;98165.66;5045297;28;20199;-85
2022/01/12 08:37:57;;;;;;;12.57;5.37;;;;;;;-1.18;64.26;98127.16;5044728;28;20270;-84
2022/01/12 08:41:17;;;;;;;9.27;5.87;;;;;;;-0.95;63.63;98165.66;5047165;28;20185;-85
2022/01/12 08:44:38;;;;;;;9.63;5.20;;;;;;;-1.18;64.33;98172.03;5047416;28;20190;-85
2022/01/12 08:47:59;;;;;;;8.20;5.13;;;;;;;-1.58;64.85;98167.00;5043562;28;20198;-85
2022/01/12 08:51:20;;;;;;;11.03;6.47;;;;;;;-1.20;65.14;98173.69;5048924;28;20187;-85
2022/01/12 08:54:41;;;;;;;8.10;5.30;;;;;;;-1.15;63.75;98177.13;5061184;28;20588;-83
2022/01/12 08:58:04;;;;;;;13.47;6.23;;;;;;;-0.95;63.52;98186.81;5074000;28;20668;-86
2022/01/12 09:01:25;;;;;;;11.00;4.57;;;;;;;-0.87;62.75;98176.81;5047022;28;20254;-85
2022/01/12 09:04:46;;;;;;;13.00;5.70;;;;;;;-1.21;63.33;98182.97;5046350;28;20235;-84
2022/01/12 09:08:08;;;;;;;8.00;4.77;;;;;;;-1.31;64.14;98192.94;5075991;28;20205;-87
2022/01/12 09:11:29;;;;;;;11.90;5.73;;;;;;;-1.33;63.88;98186.97;5050753;28;20575;-85
2022/01/12 09:14:50;;;;;;;8.87;4.93;;;;;;;-1.16;64.16;98180.53;5048673;28;20203;-83
2022/01/12 09:18:11;;;;;;;7.80;4.90;;;;;;;-1.11;62.92;98178.91;5047862;28;20198;-85
2022/01/12 09:21:33;;;;;;;7.93;4.47;;;;;;;-1.28;61.88;98185.38;5050388;28;20565;-85
2022/01/12 09:24:54;;;;;;;11.37;6.10;;;;;;;-1.27;61.73;98177.78;5048740;28;20193;-84
2022/01/12 09:28:15;;;;;;;12.13;6.03;;;;;;;-1.24;63.15;98171.91;5031470;28;20191;-83
2022/01/12 09:31:35;;;;;;;13.13;6.57;;;;;;;-1.20;62.39;98179.63;5047738;28;20684;-85
2022/01/12 09:34:58;;;;;;;11.97;5.33;;;;;;;-1.39;62.90;98180.09;5051374;28;20196;-87
2022/01/12 09:38:19;;;;;;;10.60;5.17;;;;;;;-1.23;62.96;98176.16;5051108;28;20579;-85
2022/01/12 09:41:40;;;;;;;8.43;4.40;;;;;;;-1.02;62.21;98174.00;5050949;28;20207;-86
2022/01/12 09:45:01;;;;;;;8.10;5.10;;;;;;;-1.00;60.48;98174.88;5050159;28;20182;-85
2022/01/12 09:48:21;;;;;;;7.90;4.60;;;;;;;-1.33;62.32;98181.88;5031380;28;20193;-87
2022/01/12 09:51:43;;;;;;;7.57;4.57;;;;;;;-1.63;61.24;98086.53;5051211;28;20197;-87
2022/01/12 09:55:05;;;;;;;9.13;5.03;;;;;;;-1.24;61.62;98179.53;5077224;28;20679;-85
2022/01/12 09:58:25;;;;;;;6.13;4.20;;;;;;;-1.11;61.62;98153.50;5050261;28;20267;-86
2022/01/12 10:01:54;;;;;;;9.70;5.43;;;;;;;-0.72;59.87;98169.41;5049538;28;20200;-86
2022/01/12 10:05:20;;;;;;;8.93;4.13;;;;;;;-0.88;60.51;98172.53;5048221;28;20952;-85
2022/01/12 10:08:48;;;;;;;13.93;6.80;;;;;;;-0.81;59.83;98174.38;5048228;28;20205;-84
2022/01/12 10:12:11;;;;;;;7.23;4.37;;;;;;;-1.05;59.80;98158.72;5048030;28;20675;-85
2022/01/12 10:15:35;;;;;;;10.73;5.20;;;;;;;-0.92;60.63;98184.34;5031212;28;20254;-84
2022/01/12 10:19:08;;;;;;;14.93;8.93;;;;;;;-0.83;60.27;98183.66;5076651;28;20197;-84
2022/01/12 10:22:16;;;;;;;8.60;5.70;;;;;;;-0.57;59.15;98179.84;5046809;28;20757;-85
2022/01/12 10:25:38;;;;;;;9.17;5.47;;;;;;;-0.13;57.26;98173.75;5049050;28;20186;-85
2022/01/12 10:29:01;;;;;;;10.27;5.43;;;;;;;0.01;58.21;98171.38;5046476;28;20194;-84
2022/01/12 10:32:26;;;;;;;9.63;6.07;;;;;;;-0.40;58.82;98193.69;5074515;28;20695;-84
2022/01/12 10:35:46;;;;;;;9.13;4.97;;;;;;;-0.40;58.24;98157.22;5048153;28;20220;-85
2022/01/12 10:39:07;;;;;;;10.33;5.27;;;;;;;-0.37;56.49;98152.19;5047438;28;20244;-89
2022/01/12 10:42:31;;;;;;;14.40;5.87;;;;;;;-0.03;56.63;98174.72;5029888;28;20189;-84
2022/01/12 10:45:51;;;;;;;8.93;4.03;;;;;;;-0.12;56.18;98184.75;5029873;28;20233;-85
2022/01/12 10:49:12;;;;;;;11.83;4.63;;;;;;;-0.49;56.46;98182.50;5047643;28;20197;-84
2022/01/12 10:52:34;;;;;;;9.50;5.43;;;;;;;-0.64;57.03;98132.28;5048241;28;20229;-88
2022/01/12 10:55:56;;;;;;;9.67;5.03;;;;;;;-0.54;57.92;98173.94;5047102;28;20715;-87
2022/01/12 10:59:17;;;;;;;6.90;4.87;;;;;;;-0.62;58.70;98166.22;5045845;28;20253;-86
2022/01/12 11:02:39;;;;;;;10.17;4.23;;;;;;;-0.46;56.92;98172.38;5045797;28;20687;-84
2022/01/12 11:05:59;;;;;;;7.83;4.60;;;;;;;-0.73;57.60;98136.34;5048285;28;20186;-85
2022/01/12 11:09:20;;;;;;;8.50;5.03;;;;;;;-0.34;56.62;98182.75;5048362;28;20190;-84
2022/01/12 11:12:41;;;;;;;8.67;5.37;;;;;;;-0.35;56.34;98181.88;5046417;28;20345;-84
2022/01/12 11:16:08;;;;;;;6.50;3.93;;;;;;;-0.60;55.86;98189.13;5051429;28;20228;-86
2022/01/12 11:19:42;;;;;;;7.53;4.73;;;;;;;-0.39;56.42;98180.13;5078916;28;20268;-88
2022/01/12 11:23:16;;;;;;;7.93;5.30;;;;;;;-0.19;56.43;98181.28;5049435;28;20201;-86
2022/01/12 11:27:03;;;;;;;10.40;4.97;;;;;;;-0.53;55.74;98176.50;5048062;28;20247;-86
2022/01/12 11:30:25;;;;;;;9.40;5.33;;;;;;;-0.49;56.89;98177.41;5046942;28;20197;-85
2022/01/12 11:33:31;;;;;;;7.93;4.63;;;;;;;-0.74;56.33;98188.88;5046420;28;20237;-84
2022/01/12 11:37:00;;;;;;;12.37;6.17;;;;;;;-0.51;56.54;98185.03;5048050;28;20269;-85
2022/01/12 11:40:27;;;;;;;7.23;4.43;;;;;;;-0.73;56.45;98175.34;5059914;28;20186;-84
2022/01/12 11:44:06;;;;;;;9.20;5.13;;;;;;;-0.69;56.25;98194.91;5047834;28;20313;-84
2022/01/12 11:47:32;;;;;;;8.03;4.80;;;;;;;-0.75;56.70;98199.03;5045865;28;20191;-84
2022/01/12 11:50:53;;;;;;;6.63;3.80;;;;;;;-0.95;56.29;98206.34;5047576;28;20274;-84
2022/01/12 11:54:30;;;;;;;7.10;4.37;;;;;;;-0.99;56.97;98213.03;5080317;28;20232;-84
2022/01/12 11:57:50;;;;;;;8.20;5.07;;;;;;;-1.12;58.31;98208.56;5030976;28;20253;-84
2022/01/12 12:01:11;;;;;;;8.13;4.47;;;;;;;-1.15;56.71;98187.31;5052694;28;20204;-84
2022/01/12 12:04:42;;;;;;;7.63;4.40;;;;;;;-1.08;56.50;98209.47;5047632;28;20186;-85
2022/01/12 12:08:05;;;;;;;6.63;3.90;;;;;;;-0.90;57.00;98215.75;5030785;28;20197;-84
2022/01/12 12:11:28;;;;;;;11.33;5.33;;;;;;;-1.03;56.81;98208.72;5049756;28;20199;-86
2022/01/12 12:14:49;;;;;;;6.73;4.20;;;;;;;-1.03;56.54;98212.97;5048600;28;20635;-86
2022/01/12 12:18:10;;;;;;;13.43;7.90;;;;;;;-1.16;57.05;98208.47;5047060;28;20219;-84
2022/01/12 12:21:31;;;;;;;7.53;4.60;;;;;;;-1.08;57.59;98206.94;5030298;28;20240;-86
2022/01/12 12:24:55;;;;;;;6.73;4.10;;;;;;;-1.01;56.88;98217.22;5080738;28;20679;-87
2022/01/12 12:28:18;;;;;;;8.93;4.77;;;;;;;-1.17;57.50;98209.28;5051904;28;20193;-90
2022/01/12 12:31:40;;;;;;;8.20;4.53;;;;;;;-1.31;58.36;98216.66;5054911;28;20194;-90
2022/01/12 12:35:03;;;;;;;8.73;5.00;;;;;;;-1.03;57.82;98218.88;5052645;28;20190;-90
2022/01/12 12:38:33;;;;;;;7.47;4.00;;;;;;;-1.14;56.83;98222.06;5050080;28;20242;-88
2022/01/12 12:42:02;;;;;;;7.70;4.27;;;;;;;-1.13;57.99;98218.69;5034984;28;20294;-84
2022/01/12 12:45:29;;;;;;;7.50;4.63;;;;;;;-1.10;57.08;98237.41;5049494;28;20186;-86
2022/01/12 12:48:49;;;;;;;7.07;4.10;;;;;;;-1.25;57.11;98216.78;5060925;28;20211;-86
2022/01/12 12:52:10;;;;;;;6.40;4.00;;;;;;;-1.42;57.53;98214.75;5049147;28;20584;-84
2022/01/12 12:55:32;;;;;;;9.23;4.67;;;;;;;-1.19;56.83;98216.03;5048134;28;20189;-83
2022/01/12 12:58:54;;;;;;;5.67;4.00;;;;;;;-1.19;56.42;98214.34;5075396;28;20245;-85
2022/01/12 13:02:15;;;;;;;3.90;2.80;;;;;;;-1.29;56.66;98216.69;5048185;28;20663;-85
2022/01/12 13:05:42;;;;;;;5.73;4.00;;;;;;;-1.24;56.37;98232.88;5072591;28;20229;-86
2022/01/12 13:09:13;;;;;;;7.27;4.23;;;;;;;-1.53;56.75;98213.69;5058128;28;20209;-83
2022/01/12 13:12:34;;;;;;;4.17;2.97;;;;;;;-1.46;56.59;98228.22;5048978;28;20240;-85
2022/01/12 13:16:13;;;;;;;6.20;4.23;;;;;;;-1.61;56.10;98220.28;5087803;28;20185;-85
2022/01/12 13:23:15;;;;;;;6.40;4.30;;;;;;;-1.47;58.71;98244.28;5047164;28;20237;-84
2022/01/12 13:26:45;;;;;;;5.97;3.87;;;;;;;-1.63;57.58;98225.34;5044325;28;20213;-88
2022/01/12 13:30:07;;;;;;;8.43;4.27;;;;;;;-1.66;56.84;98250.66;5060183;28;20197;-90
2022/01/12 13:33:34;;;;;;;6.30;3.67;;;;;;;-1.69;58.37;98251.44;5073828;28;20228;-85
2022/01/12 13:36:40;;;;;;;7.90;4.87;;;;;;;-1.80;58.92;98260.53;5046272;28;20227;-86
2022/01/12 13:40:02;;;;;;;5.67;3.70;;;;;;;-1.68;56.95;98263.31;5041545;28;20189;-85
2022/01/12 13:43:33;;;;;;;5.50;3.57;;;;;;;-1.67;57.21;98259.09;5073856;28;20188;-90
2022/01/12 13:50:48;;;;;;;4.60;3.63;;;;;;;-1.72;58.05;98260.69;5044630;28;20192;-85
2022/01/12 13:54:11;;;;;;;7.17;4.77;;;;;;;-1.75;57.79;98274.16;5058709;28;20654;-84
2022/01/12 13:57:33;;;;;;;6.87;4.00;;;;;;;-1.90;59.20;98273.84;5048210;28;20191;-85
2022/01/12 14:00:56;;;;;;;8.83;4.70;;;;;;;-1.85;57.88;98258.69;5049410;28;20589;-85
2022/01/12 14:04:22;;;;;;;6.37;3.20;;;;;;;-1.82;56.75;98251.16;5049187;28;20178;-85
2022/01/12 14:07:51;;;;;;;5.70;3.30;;;;;;;-1.86;56.41;98264.59;5062377;28;20184;-86
2022/01/12 14:11:12;;;;;;;7.57;4.57;;;;;;;-2.07;58.03;98275.13;5047735;28;20672;-86
2022/01/12 14:14:32;;;;;;;7.03;3.83;;;;;;;-1.93;57.61;98258.53;5050725;28;20317;-86
2022/01/12 14:18:05;;;;;;;11.30;4.73;;;;;;;-1.91;57.21;98267.03;5050741;28;20192;-87
2022/01/12 14:21:31;;;;;;;6.67;3.77;;;;;;;-1.96;58.89;98263.53;5030839;28;20236;-85
2022/01/12 14:24:52;;;;;;;5.47;3.80;;;;;;;-2.41;58.04;98214.28;5052531;28;20592;-87
2022/01/12 14:28:21;;;;;;;8.53;4.67;;;;;;;-2.03;59.25;98266.75;5050392;28;20283;-86
2022/01/12 14:31:43;;;;;;;6.17;4.07;;;;;;;-2.14;58.10;98252.13;5050450;28;20284;-85
2022/01/12 14:35:03;;;;;;;8.70;4.30;;;;;;;-2.06;58.61;98251.44;5049511;28;20694;-85
2022/01/12 14:38:25;;;;;;;6.10;3.57;;;;;;;-1.95;58.22;98267.78;5049307;28;20595;-85
2022/01/12 14:42:06;;;;;;;6.07;3.17;;;;;;;-1.94;58.08;98276.25;5048955;28;20256;-86
2022/01/12 14:45:49;;;;;;;8.70;4.43;;;;;;;-1.82;58.79;98287.56;5054906;28;20255;-87
2022/01/12 14:49:30;;;;;;;7.57;3.83;;;;;;;-1.92;58.05;98290.72;5069296;28;20302;-84
2022/01/12 14:53:10;;;;;;;9.50;3.73;;;;;;;-2.68;58.36;98146.03;5069784;28;20233;-87
2022/01/12 14:56:31;;;;;;;8.10;4.33;;;;;;;-2.06;59.13;98276.00;5066836;28;20206;-90
2022/01/12 14:59:52;;;;;;;7.57;4.50;;;;;;;-2.02;59.26;98290.47;5065940;28;20201;-85
2022/01/12 15:03:14;;;;;;;7.93;4.40;;;;;;;-1.92;59.08;98282.22;5065798;28;20254;-85
2022/01/12 15:06:36;;;;;;;6.93;4.60;;;;;;;-1.80;59.29;98280.81;5048211;28;20272;-91
2022/01/12 15:09:17;;;;;;;9.43;4.73;;;;;;;-1.77;57.76;98280.88;5052925;28;20264;-89
2022/01/12 15:11:48;;;;;;;9.50;5.57;;;;;;;-1.86;58.53;98270.53;5051914;28;20205;-86
2022/01/12 15:14:31;;;;;;;8.47;5.60;;;;;;;-2.34;58.49;98178.09;5054071;28;20689;-85
2022/01/12 15:16:59;;;;;;;5.40;4.27;;;;;;;-1.94;59.03;98220.44;5064209;28;20209;-86
2022/01/12 15:19:26;;;;;;;8.40;5.73;;;;;;;-1.61;59.29;98248.22;5079194;28;20542;-85
2022/01/12 15:22:12;;;;;;;6.77;4.60;;;;;;;-1.88;58.26;98223.09;5076528;28;20198;-85
2022/01/12 15:25:04;;;;;;;8.87;5.20;;;;;;;-1.95;58.95;98272.00;5079673;28;20242;-87
2022/01/12 15:27:32;;;;;;;9.63;4.80;;;;;;;-2.22;58.82;98234.16;5075813;28;20677;-92
2022/01/12 15:30:09;;;;;;;6.57;4.27;;;;;;;-2.14;58.50;98270.72;5070773;28;20210;-88
2022/01/12 15:33:12;;;;;;;10.27;5.47;;;;;;;-2.04;57.88;98271.81;5071313;28;20240;-88
2022/01/12 15:35:49;;;;;;;8.67;5.67;;;;;;;-1.99;57.52;98268.53;5069508;28;20760;-89
2022/01/12 15:38:17;;;;;;;7.73;4.90;;;;;;;-1.93;56.76;98273.75;5043577;28;20804;-89
2022/01/12 15:40:44;;;;;;;11.43;5.50;;;;;;;-2.08;56.76;98247.19;5049057;28;20237;-86
2022/01/12 15:43:12;;;;;;;11.37;5.27;;;;;;;-1.86;56.99;98293.38;5030319;28;20194;-86
2022/01/12 15:45:40;;;;;;;12.00;6.50;;;;;;;-1.69;56.71;98296.31;5049601;28;20292;-88
2022/01/12 15:48:12;;;;;;;10.83;4.93;;;;;;;-2.04;55.37;98226.13;5032683;28;20586;-88
2022/01/12 15:50:40;;;;;;;11.33;6.73;;;;;;;-1.53;55.28;98305.09;5048358;28;20207;-87